sensor_id;sensor_type;location;lat;lon;timestamp;temperature;humidity
47779;DHT22;33538;48.432;11.350;2024-02-04T00:01:15;7.10;99.90
47779;DHT22;33538;48.432;11.350;2024-02-04T00:03:42;7.20;99.90
47779;DHT22;33538;48.432;11.350;2024-02-04T00:06:09;7.10;99.90
47779;DHT22;33538;48.432;11.350;2024-02-04T00:08:35;7.10;99.90
47779;DHT22;33538;48.432;11.350;2024-02-04T00:11:02;7.10;99.90
47779;DHT22;33538;48.432;11.350;2024-02-04T00:13:29;7.10;99.90
47779;DHT22;33538;48.432;11.350;2024-02-04T00:15:57;7.10;99.90
47779;DHT22;33538;48.432;11.350;2024-02-04T00:18:24;7.10;99.90
47779;DHT22;33538;48.432;11.350;2024-02-04T00:20:51;7.10;99.90
47779;DHT22;33538;48.432;11.350;2024-02-04T00:23:18;7.20;99.90
47779;DHT22;33538;48.432;11.350;2024-02-04T00:25:45;7.20;99.90
47779;DHT22;33538;48.432;11.350;2024-02-04T00:28:12;7.20;99.90
47779;DHT22;33538;48.432;11.350;2024-02-04T00:30:39;7.20;99.90
47779;DHT22;33538;48.432;11.350;2024-02-04T00:33:07;7.10;99.90
47779;DHT22;33538;48.432;11.350;2024-02-04T00:35:34;7.20;99.90
47779;DHT22;33538;48.432;11.350;2024-02-04T00:38:01;7.20;99.90
47779;DHT22;33538;48.432;11.350;2024-02-04T00:40:27;7.20;99.90
47779;DHT22;33538;48.432;11.350;2024-02-04T00:42:54;7.20;99.90
47779;DHT22;33538;48.432;11.350;2024-02-04T00:45:21;7.20;99.90
47779;DHT22;33538;48.432;11.350;2024-02-04T00:47:48;7.20;99.90
47779;DHT22;33538;48.432;11.350;2024-02-04T00:50:16;7.10;99.90
47779;DHT22;33538;48.432;11.350;2024-02-04T00:52:43;7.20;99.90
47779;DHT22;33538;48.432;11.350;2024-02-04T00:55:10;7.20;99.90
47779;DHT22;33538;48.432;11.350;2024-02-04T00:57:37;7.10;99.90
47779;DHT22;33538;48.432;11.350;2024-02-04T01:00:04;7.10;99.90
47779;DHT22;33538;48.432;11.350;2024-02-04T01:02:31;7.20;99.90
47779;DHT22;33538;48.432;11.350;2024-02-04T01:04:58;7.10;99.90
47779;DHT22;33538;48.432;11.350;2024-02-04T01:07:26;7.20;99.90
47779;DHT22;33538;48.432;11.350;2024-02-04T01:09:53;7.10;99.90
47779;DHT22;33538;48.432;11.350;2024-02-04T01:12:20;7.10;99.90
47779;DHT22;33538;48.432;11.350;2024-02-04T01:14:47;7.10;99.90
47779;DHT22;33538;48.432;11.350;2024-02-04T01:17:13;7.10;99.90
47779;DHT22;33538;48.432;11.350;2024-02-04T01:19:40;7.10;99.90
47779;DHT22;33538;48.432;11.350;2024-02-04T01:22:07;7.10;99.90
47779;DHT22;33538;48.432;11.350;2024-02-04T01:24:35;7.10;99.90
47779;DHT22;33538;48.432;11.350;2024-02-04T01:27:03;7.10;99.90
47779;DHT22;33538;48.432;11.350;2024-02-04T01:29:29;7.20;99.90
47779;DHT22;33538;48.432;11.350;2024-02-04T01:31:56;7.10;99.90
47779;DHT22;33538;48.432;11.350;2024-02-04T01:34:23;7.10;99.90
47779;DHT22;33538;48.432;11.350;2024-02-04T01:36:50;7.10;99.90
47779;DHT22;33538;48.432;11.350;2024-02-04T01:39:17;7.10;99.90
47779;DHT22;33538;48.432;11.350;2024-02-04T01:41:45;7.10;99.90
47779;DHT22;33538;48.432;11.350;2024-02-04T01:44:12;7.10;99.90
47779;DHT22;33538;48.432;11.350;2024-02-04T01:46:39;7.10;99.90
47779;DHT22;33538;48.432;11.350;2024-02-04T01:49:06;7.10;99.90
47779;DHT22;33538;48.432;11.350;2024-02-04T01:51:34;7.10;99.90
47779;DHT22;33538;48.432;11.350;2024-02-04T01:54:01;7.10;99.90
47779;DHT22;33538;48.432;11.350;2024-02-04T01:56:28;7.10;99.90
47779;DHT22;33538;48.432;11.350;2024-02-04T01:58:58;7.10;99.90
47779;DHT22;33538;48.432;11.350;2024-02-04T02:01:26;7.10;99.90
47779;DHT22;33538;48.432;11.350;2024-02-04T02:03:54;7.10;99.90
47779;DHT22;33538;48.432;11.350;2024-02-04T02:06:21;7.10;99.90
47779;DHT22;33538;48.432;11.350;2024-02-04T02:08:48;7.10;99.90
47779;DHT22;33538;48.432;11.350;2024-02-04T02:11:19;7.10;99.90
47779;DHT22;33538;48.432;11.350;2024-02-04T02:13:52;7.10;99.90
47779;DHT22;33538;48.432;11.350;2024-02-04T02:16:22;7.10;99.90
47779;DHT22;33538;48.432;11.350;2024-02-04T02:18:52;7.10;99.90
47779;DHT22;33538;48.432;11.350;2024-02-04T02:21:36;7.10;99.90
47779;DHT22;33538;48.432;11.350;2024-02-04T02:24:10;7.10;99.90
47779;DHT22;33538;48.432;11.350;2024-02-04T02:26:38;7.10;99.90
47779;DHT22;33538;48.432;11.350;2024-02-04T02:29:07;7.10;99.90
47779;DHT22;33538;48.432;11.350;2024-02-04T02:31:33;7.10;99.90
47779;DHT22;33538;48.432;11.350;2024-02-04T02:34:13;7.10;99.90
47779;DHT22;33538;48.432;11.350;2024-02-04T02:37:00;7.10;99.90
47779;DHT22;33538;48.432;11.350;2024-02-04T02:39:31;7.10;99.90
47779;DHT22;33538;48.432;11.350;2024-02-04T02:42:01;7.10;99.90
47779;DHT22;33538;48.432;11.350;2024-02-04T02:44:30;7.10;99.90
47779;DHT22;33538;48.432;11.350;2024-02-04T02:46:58;7.10;99.90
47779;DHT22;33538;48.432;11.350;2024-02-04T02:49:27;7.00;99.90
47779;DHT22;33538;48.432;11.350;2024-02-04T02:51:54;7.10;99.90
47779;DHT22;33538;48.432;11.350;2024-02-04T02:54:21;7.10;99.90
47779;DHT22;33538;48.432;11.350;2024-02-04T02:56:48;7.10;99.90
47779;DHT22;33538;48.432;11.350;2024-02-04T02:59:16;7.10;99.90
47779;DHT22;33538;48.432;11.350;2024-02-04T03:01:43;7.10;99.90
47779;DHT22;33538;48.432;11.350;2024-02-04T03:04:10;7.10;99.90
47779;DHT22;33538;48.432;11.350;2024-02-04T03:06:37;7.10;99.90
47779;DHT22;33538;48.432;11.350;2024-02-04T03:09:04;7.10;99.90
47779;DHT22;33538;48.432;11.350;2024-02-04T03:11:30;7.10;99.90
47779;DHT22;33538;48.432;11.350;2024-02-04T03:13:57;7.10;99.90
47779;DHT22;33538;48.432;11.350;2024-02-04T03:16:25;7.10;99.90
47779;DHT22;33538;48.432;11.350;2024-02-04T03:18:53;7.10;99.90
47779;DHT22;33538;48.432;11.350;2024-02-04T03:21:20;7.10;99.90
47779;DHT22;33538;48.432;11.350;2024-02-04T03:23:46;7.10;99.90
47779;DHT22;33538;48.432;11.350;2024-02-04T03:26:16;7.10;99.90
47779;DHT22;33538;48.432;11.350;2024-02-04T03:28:43;7.10;99.90
47779;DHT22;33538;48.432;11.350;2024-02-04T03:31:10;7.10;99.90
47779;DHT22;33538;48.432;11.350;2024-02-04T03:33:38;7.10;99.90
47779;DHT22;33538;48.432;11.350;2024-02-04T03:36:06;7.10;99.90
47779;DHT22;33538;48.432;11.350;2024-02-04T03:38:32;7.10;99.90
47779;DHT22;33538;48.432;11.350;2024-02-04T03:40:59;7.10;99.90
47779;DHT22;33538;48.432;11.350;2024-02-04T03:43:26;7.10;99.90
47779;DHT22;33538;48.432;11.350;2024-02-04T03:45:53;7.10;99.90
47779;DHT22;33538;48.432;11.350;2024-02-04T03:48:20;7.10;99.90
47779;DHT22;33538;48.432;11.350;2024-02-04T03:50:48;7.10;99.90
47779;DHT22;33538;48.432;11.350;2024-02-04T03:53:15;7.10;99.90
47779;DHT22;33538;48.432;11.350;2024-02-04T03:55:41;7.10;99.90
47779;DHT22;33538;48.432;11.350;2024-02-04T03:58:08;7.00;99.90
47779;DHT22;33538;48.432;11.350;2024-02-04T04:00:35;7.00;99.90
47779;DHT22;33538;48.432;11.350;2024-02-04T04:03:02;7.00;99.90
47779;DHT22;33538;48.432;11.350;2024-02-04T04:05:29;7.00;99.90
47779;DHT22;33538;48.432;11.350;2024-02-04T04:07:57;7.00;99.90
47779;DHT22;33538;48.432;11.350;2024-02-04T04:10:24;7.00;99.90
47779;DHT22;33538;48.432;11.350;2024-02-04T04:12:51;7.00;99.90
47779;DHT22;33538;48.432;11.350;2024-02-04T04:15:18;7.00;99.90
47779;DHT22;33538;48.432;11.350;2024-02-04T04:17:44;7.00;99.90
47779;DHT22;33538;48.432;11.350;2024-02-04T04:20:11;7.00;99.90
47779;DHT22;33538;48.432;11.350;2024-02-04T04:22:39;7.00;99.90
47779;DHT22;33538;48.432;11.350;2024-02-04T04:25:08;7.00;99.90
47779;DHT22;33538;48.432;11.350;2024-02-04T04:27:34;7.00;99.90
47779;DHT22;33538;48.432;11.350;2024-02-04T04:30:01;7.00;99.90
47779;DHT22;33538;48.432;11.350;2024-02-04T04:32:28;7.00;99.90
47779;DHT22;33538;48.432;11.350;2024-02-04T04:34:55;7.00;99.90
47779;DHT22;33538;48.432;11.350;2024-02-04T04:37:22;7.00;99.90
47779;DHT22;33538;48.432;11.350;2024-02-04T04:39:49;7.00;99.90
47779;DHT22;33538;48.432;11.350;2024-02-04T04:42:17;7.00;99.90
47779;DHT22;33538;48.432;11.350;2024-02-04T04:44:43;7.00;99.90
47779;DHT22;33538;48.432;11.350;2024-02-04T04:47:10;7.00;99.90
47779;DHT22;33538;48.432;11.350;2024-02-04T04:49:37;7.00;99.90
47779;DHT22;33538;48.432;11.350;2024-02-04T04:52:04;7.00;99.90
47779;DHT22;33538;48.432;11.350;2024-02-04T04:54:31;7.00;99.90
47779;DHT22;33538;48.432;11.350;2024-02-04T04:56:58;7.00;99.90
47779;DHT22;33538;48.432;11.350;2024-02-04T04:59:26;7.00;99.90
47779;DHT22;33538;48.432;11.350;2024-02-04T05:01:53;7.00;99.90
47779;DHT22;33538;48.432;11.350;2024-02-04T05:04:20;7.00;99.90
47779;DHT22;33538;48.432;11.350;2024-02-04T05:06:47;7.00;99.90
47779;DHT22;33538;48.432;11.350;2024-02-04T05:09:14;7.00;99.90
47779;DHT22;33538;48.432;11.350;2024-02-04T05:11:41;7.00;99.90
47779;DHT22;33538;48.432;11.350;2024-02-04T05:14:07;7.00;99.90
47779;DHT22;33538;48.432;11.350;2024-02-04T05:16:36;7.00;99.90
47779;DHT22;33538;48.432;11.350;2024-02-04T05:19:03;7.00;99.90
47779;DHT22;33538;48.432;11.350;2024-02-04T05:21:30;7.00;99.90
47779;DHT22;33538;48.432;11.350;2024-02-04T05:23:56;7.00;99.90
47779;DHT22;33538;48.432;11.350;2024-02-04T05:26:23;7.00;99.90
47779;DHT22;33538;48.432;11.350;2024-02-04T05:28:50;7.00;99.90
47779;DHT22;33538;48.432;11.350;2024-02-04T05:31:17;6.90;99.90
47779;DHT22;33538;48.432;11.350;2024-02-04T05:33:45;7.00;99.90
47779;DHT22;33538;48.432;11.350;2024-02-04T05:36:12;6.90;99.90
47779;DHT22;33538;48.432;11.350;2024-02-04T05:38:39;7.00;99.90
47779;DHT22;33538;48.432;11.350;2024-02-04T05:41:06;6.90;99.90
47779;DHT22;33538;48.432;11.350;2024-02-04T05:43:32;7.00;99.90
47779;DHT22;33538;48.432;11.350;2024-02-04T05:45:59;7.00;99.90
47779;DHT22;33538;48.432;11.350;2024-02-04T05:48:26;7.00;99.90
47779;DHT22;33538;48.432;11.350;2024-02-04T05:50:55;7.00;99.90
47779;DHT22;33538;48.432;11.350;2024-02-04T05:53:21;7.00;99.90
47779;DHT22;33538;48.432;11.350;2024-02-04T05:55:48;6.90;99.90
47779;DHT22;33538;48.432;11.350;2024-02-04T05:58:15;6.90;99.90
47779;DHT22;33538;48.432;11.350;2024-02-04T06:00:42;7.00;99.90
47779;DHT22;33538;48.432;11.350;2024-02-04T06:03:09;6.90;99.90
47779;DHT22;33538;48.432;11.350;2024-02-04T06:05:35;6.90;99.90
47779;DHT22;33538;48.432;11.350;2024-02-04T06:08:05;7.00;99.90
47779;DHT22;33538;48.432;11.350;2024-02-04T06:10:32;6.90;99.90
47779;DHT22;33538;48.432;11.350;2024-02-04T06:12:58;6.90;99.90
47779;DHT22;33538;48.432;11.350;2024-02-04T06:15:25;6.90;99.90
47779;DHT22;33538;48.432;11.350;2024-02-04T06:17:52;6.90;99.90
47779;DHT22;33538;48.432;11.350;2024-02-04T06:20:19;6.90;99.90
47779;DHT22;33538;48.432;11.350;2024-02-04T06:22:46;6.90;99.90
47779;DHT22;33538;48.432;11.350;2024-02-04T06:25:14;6.90;99.90
47779;DHT22;33538;48.432;11.350;2024-02-04T06:27:41;6.90;99.90
47779;DHT22;33538;48.432;11.350;2024-02-04T06:30:08;6.90;99.90
47779;DHT22;33538;48.432;11.350;2024-02-04T06:32:36;6.90;99.90
47779;DHT22;33538;48.432;11.350;2024-02-04T06:35:04;6.90;99.90
47779;DHT22;33538;48.432;11.350;2024-02-04T06:37:31;6.90;99.90
47779;DHT22;33538;48.432;11.350;2024-02-04T06:39:58;6.90;99.90
47779;DHT22;33538;48.432;11.350;2024-02-04T06:42:26;6.90;99.90
47779;DHT22;33538;48.432;11.350;2024-02-04T06:44:53;6.90;99.90
47779;DHT22;33538;48.432;11.350;2024-02-04T06:47:19;6.90;99.90
47779;DHT22;33538;48.432;11.350;2024-02-04T06:49:46;6.90;99.90
47779;DHT22;33538;48.432;11.350;2024-02-04T06:52:13;6.90;99.90
47779;DHT22;33538;48.432;11.350;2024-02-04T06:54:40;6.90;99.90
47779;DHT22;33538;48.432;11.350;2024-02-04T06:57:07;6.90;99.90
47779;DHT22;33538;48.432;11.350;2024-02-04T06:59:35;6.90;99.90
47779;DHT22;33538;48.432;11.350;2024-02-04T07:02:02;6.90;99.90
47779;DHT22;33538;48.432;11.350;2024-02-04T07:04:29;6.90;99.90
47779;DHT22;33538;48.432;11.350;2024-02-04T07:06:56;6.90;99.90
47779;DHT22;33538;48.432;11.350;2024-02-04T07:09:23;6.90;99.90
47779;DHT22;33538;48.432;11.350;2024-02-04T07:11:50;6.90;99.90
47779;DHT22;33538;48.432;11.350;2024-02-04T07:14:16;6.90;99.90
47779;DHT22;33538;48.432;11.350;2024-02-04T07:16:45;6.90;99.90
47779;DHT22;33538;48.432;11.350;2024-02-04T07:19:11;6.90;99.90
47779;DHT22;33538;48.432;11.350;2024-02-04T07:21:38;6.90;99.90
47779;DHT22;33538;48.432;11.350;2024-02-04T07:24:05;6.90;99.90
47779;DHT22;33538;48.432;11.350;2024-02-04T07:26:32;6.90;99.90
47779;DHT22;33538;48.432;11.350;2024-02-04T07:28:59;6.90;99.90
47779;DHT22;33538;48.432;11.350;2024-02-04T07:31:26;6.90;99.90
47779;DHT22;33538;48.432;11.350;2024-02-04T07:33:54;6.90;99.90
47779;DHT22;33538;48.432;11.350;2024-02-04T07:36:24;6.90;99.90
47779;DHT22;33538;48.432;11.350;2024-02-04T07:38:51;6.90;99.90
47779;DHT22;33538;48.432;11.350;2024-02-04T07:41:21;6.80;99.90
47779;DHT22;33538;48.432;11.350;2024-02-04T07:43:48;6.90;99.90
47779;DHT22;33538;48.432;11.350;2024-02-04T07:46:15;6.90;99.90
47779;DHT22;33538;48.432;11.350;2024-02-04T07:48:42;6.90;99.90
47779;DHT22;33538;48.432;11.350;2024-02-04T07:51:10;6.90;99.90
47779;DHT22;33538;48.432;11.350;2024-02-04T07:53:37;6.90;99.90
47779;DHT22;33538;48.432;11.350;2024-02-04T07:56:04;6.90;99.90
47779;DHT22;33538;48.432;11.350;2024-02-04T07:58:31;6.90;99.90
47779;DHT22;33538;48.432;11.350;2024-02-04T08:00:58;6.90;99.90
47779;DHT22;33538;48.432;11.350;2024-02-04T08:03:25;6.90;99.90
47779;DHT22;33538;48.432;11.350;2024-02-04T08:05:52;6.90;99.90
47779;DHT22;33538;48.432;11.350;2024-02-04T08:08:20;6.90;99.90
47779;DHT22;33538;48.432;11.350;2024-02-04T08:10:47;6.90;99.90
47779;DHT22;33538;48.432;11.350;2024-02-04T08:13:14;6.90;99.90
47779;DHT22;33538;48.432;11.350;2024-02-04T08:15:40;6.90;99.90
47779;DHT22;33538;48.432;11.350;2024-02-04T08:18:07;6.90;99.90
47779;DHT22;33538;48.432;11.350;2024-02-04T08:20:34;6.90;99.90
47779;DHT22;33538;48.432;11.350;2024-02-04T08:23:01;6.90;99.90
47779;DHT22;33538;48.432;11.350;2024-02-04T08:25:29;7.00;99.90
47779;DHT22;33538;48.432;11.350;2024-02-04T08:27:57;6.90;99.90
47779;DHT22;33538;48.432;11.350;2024-02-04T08:30:25;6.90;99.90
47779;DHT22;33538;48.432;11.350;2024-02-04T08:32:52;7.00;99.90
47779;DHT22;33538;48.432;11.350;2024-02-04T08:35:18;7.00;99.90
47779;DHT22;33538;48.432;11.350;2024-02-04T08:37:45;7.00;99.90
47779;DHT22;33538;48.432;11.350;2024-02-04T08:40:13;7.00;99.90
47779;DHT22;33538;48.432;11.350;2024-02-04T08:42:41;7.00;99.90
47779;DHT22;33538;48.432;11.350;2024-02-04T08:45:09;7.00;99.90
47779;DHT22;33538;48.432;11.350;2024-02-04T08:47:36;7.00;99.90
47779;DHT22;33538;48.432;11.350;2024-02-04T08:50:03;7.00;99.90
47779;DHT22;33538;48.432;11.350;2024-02-04T08:52:30;7.00;99.90
47779;DHT22;33538;48.432;11.350;2024-02-04T08:54:57;7.00;99.90
47779;DHT22;33538;48.432;11.350;2024-02-04T08:57:23;7.00;99.90
47779;DHT22;33538;48.432;11.350;2024-02-04T08:59:52;7.00;99.90
47779;DHT22;33538;48.432;11.350;2024-02-04T09:02:18;7.00;99.90
47779;DHT22;33538;48.432;11.350;2024-02-04T09:04:45;7.00;99.90
47779;DHT22;33538;48.432;11.350;2024-02-04T09:07:12;7.00;99.90
47779;DHT22;33538;48.432;11.350;2024-02-04T09:09:39;7.00;99.90
47779;DHT22;33538;48.432;11.350;2024-02-04T09:12:07;7.10;99.90
47779;DHT22;33538;48.432;11.350;2024-02-04T09:14:34;7.00;99.90
47779;DHT22;33538;48.432;11.350;2024-02-04T09:17:04;7.00;99.90
47779;DHT22;33538;48.432;11.350;2024-02-04T09:19:30;7.00;99.90
47779;DHT22;33538;48.432;11.350;2024-02-04T09:21:58;7.00;99.90
47779;DHT22;33538;48.432;11.350;2024-02-04T09:24:25;7.00;99.90
47779;DHT22;33538;48.432;11.350;2024-02-04T09:26:51;7.00;99.90
47779;DHT22;33538;48.432;11.350;2024-02-04T09:29:19;7.10;99.90
47779;DHT22;33538;48.432;11.350;2024-02-04T09:31:46;7.10;99.90
47779;DHT22;33538;48.432;11.350;2024-02-04T09:34:14;7.10;99.90
47779;DHT22;33538;48.432;11.350;2024-02-04T09:36:46;7.10;99.90
47779;DHT22;33538;48.432;11.350;2024-02-04T09:39:13;7.10;99.90
47779;DHT22;33538;48.432;11.350;2024-02-04T09:41:40;7.10;99.90
47779;DHT22;33538;48.432;11.350;2024-02-04T09:44:07;7.10;99.90
47779;DHT22;33538;48.432;11.350;2024-02-04T09:46:35;7.10;99.90
47779;DHT22;33538;48.432;11.350;2024-02-04T09:49:02;7.10;99.90
47779;DHT22;33538;48.432;11.350;2024-02-04T09:51:30;7.10;99.90
47779;DHT22;33538;48.432;11.350;2024-02-04T09:54:02;7.10;99.90
47779;DHT22;33538;48.432;11.350;2024-02-04T09:56:30;7.10;99.90
47779;DHT22;33538;48.432;11.350;2024-02-04T09:58:58;7.10;99.90
47779;DHT22;33538;48.432;11.350;2024-02-04T10:01:26;7.10;99.90
47779;DHT22;33538;48.432;11.350;2024-02-04T10:03:53;7.10;99.90
47779;DHT22;33538;48.432;11.350;2024-02-04T10:06:20;7.10;99.90
47779;DHT22;33538;48.432;11.350;2024-02-04T10:08:48;7.10;99.90
47779;DHT22;33538;48.432;11.350;2024-02-04T10:11:15;7.10;99.90
47779;DHT22;33538;48.432;11.350;2024-02-04T10:13:44;7.20;99.90
47779;DHT22;33538;48.432;11.350;2024-02-04T10:16:11;7.20;99.90
47779;DHT22;33538;48.432;11.350;2024-02-04T10:18:41;7.20;99.90
47779;DHT22;33538;48.432;11.350;2024-02-04T10:21:15;7.20;99.90
47779;DHT22;33538;48.432;11.350;2024-02-04T10:23:42;7.20;99.90
47779;DHT22;33538;48.432;11.350;2024-02-04T10:26:10;7.20;99.90
47779;DHT22;33538;48.432;11.350;2024-02-04T10:28:37;7.20;99.90
47779;DHT22;33538;48.432;11.350;2024-02-04T10:31:04;7.20;99.90
47779;DHT22;33538;48.432;11.350;2024-02-04T10:33:30;7.20;99.90
47779;DHT22;33538;48.432;11.350;2024-02-04T10:35:57;7.20;99.90
47779;DHT22;33538;48.432;11.350;2024-02-04T10:38:24;7.20;99.90
47779;DHT22;33538;48.432;11.350;2024-02-04T10:40:54;7.20;99.90
47779;DHT22;33538;48.432;11.350;2024-02-04T10:43:23;7.20;99.90
47779;DHT22;33538;48.432;11.350;2024-02-04T10:45:53;7.20;99.90
47779;DHT22;33538;48.432;11.350;2024-02-04T10:48:25;7.20;99.90
47779;DHT22;33538;48.432;11.350;2024-02-04T10:50:55;7.20;99.90
47779;DHT22;33538;48.432;11.350;2024-02-04T10:53:22;7.20;99.90
47779;DHT22;33538;48.432;11.350;2024-02-04T10:55:51;7.20;99.90
47779;DHT22;33538;48.432;11.350;2024-02-04T10:58:23;7.20;99.90
47779;DHT22;33538;48.432;11.350;2024-02-04T11:00:51;7.20;99.90
47779;DHT22;33538;48.432;11.350;2024-02-04T11:03:18;7.20;99.90
47779;DHT22;33538;48.432;11.350;2024-02-04T11:05:50;7.30;99.90
47779;DHT22;33538;48.432;11.350;2024-02-04T11:08:17;7.30;99.90
47779;DHT22;33538;48.432;11.350;2024-02-04T11:10:44;7.30;99.90
47779;DHT22;33538;48.432;11.350;2024-02-04T11:13:11;7.30;99.90
47779;DHT22;33538;48.432;11.350;2024-02-04T11:15:40;7.30;99.90
47779;DHT22;33538;48.432;11.350;2024-02-04T11:18:35;7.30;99.90
47779;DHT22;33538;48.432;11.350;2024-02-04T11:21:32;7.30;99.90
47779;DHT22;33538;48.432;11.350;2024-02-04T11:24:12;7.30;99.90
47779;DHT22;33538;48.432;11.350;2024-02-04T11:26:41;7.30;99.90
47779;DHT22;33538;48.432;11.350;2024-02-04T11:29:09;7.30;99.90
47779;DHT22;33538;48.432;11.350;2024-02-04T11:31:38;7.30;99.90
47779;DHT22;33538;48.432;11.350;2024-02-04T11:34:05;7.30;99.90
47779;DHT22;33538;48.432;11.350;2024-02-04T11:36:38;7.30;99.90
47779;DHT22;33538;48.432;11.350;2024-02-04T11:39:11;7.30;99.90
47779;DHT22;33538;48.432;11.350;2024-02-04T11:41:44;7.40;99.90
47779;DHT22;33538;48.432;11.350;2024-02-04T11:44:11;7.40;99.90
47779;DHT22;33538;48.432;11.350;2024-02-04T11:46:45;7.40;99.90
47779;DHT22;33538;48.432;11.350;2024-02-04T11:49:14;7.30;99.90
47779;DHT22;33538;48.432;11.350;2024-02-04T11:51:45;7.40;99.90
47779;DHT22;33538;48.432;11.350;2024-02-04T11:54:12;7.40;99.90
47779;DHT22;33538;48.432;11.350;2024-02-04T11:56:39;7.40;99.90
47779;DHT22;33538;48.432;11.350;2024-02-04T11:59:06;7.40;99.90
47779;DHT22;33538;48.432;11.350;2024-02-04T12:01:33;7.40;99.90
47779;DHT22;33538;48.432;11.350;2024-02-04T12:04:10;7.40;99.90
47779;DHT22;33538;48.432;11.350;2024-02-04T12:06:37;7.40;99.90
47779;DHT22;33538;48.432;11.350;2024-02-04T12:09:05;7.40;99.90
47779;DHT22;33538;48.432;11.350;2024-02-04T12:11:33;7.40;99.90
47779;DHT22;33538;48.432;11.350;2024-02-04T12:14:00;7.40;99.90
47779;DHT22;33538;48.432;11.350;2024-02-04T12:16:27;7.40;99.90
47779;DHT22;33538;48.432;11.350;2024-02-04T12:18:54;7.40;99.90
47779;DHT22;33538;48.432;11.350;2024-02-04T12:21:23;7.40;99.90
47779;DHT22;33538;48.432;11.350;2024-02-04T12:23:50;7.40;99.90
47779;DHT22;33538;48.432;11.350;2024-02-04T12:26:17;7.40;99.90
47779;DHT22;33538;48.432;11.350;2024-02-04T12:28:44;7.40;99.90
47779;DHT22;33538;48.432;11.350;2024-02-04T12:31:16;7.40;99.90
47779;DHT22;33538;48.432;11.350;2024-02-04T12:33:49;7.50;99.90
47779;DHT22;33538;48.432;11.350;2024-02-04T12:36:16;7.50;99.90
47779;DHT22;33538;48.432;11.350;2024-02-04T12:38:50;7.50;99.90
47779;DHT22;33538;48.432;11.350;2024-02-04T12:41:17;7.50;99.90
47779;DHT22;33538;48.432;11.350;2024-02-04T12:43:49;7.50;99.90
47779;DHT22;33538;48.432;11.350;2024-02-04T12:46:16;7.50;99.90
47779;DHT22;33538;48.432;11.350;2024-02-04T12:48:43;7.50;99.90
47779;DHT22;33538;48.432;11.350;2024-02-04T12:51:10;7.50;99.90
47779;DHT22;33538;48.432;11.350;2024-02-04T12:53:37;7.50;99.90
47779;DHT22;33538;48.432;11.350;2024-02-04T12:56:05;7.50;99.90
47779;DHT22;33538;48.432;11.350;2024-02-04T12:58:42;7.50;99.90
47779;DHT22;33538;48.432;11.350;2024-02-04T13:01:09;7.50;99.90
47779;DHT22;33538;48.432;11.350;2024-02-04T13:03:36;7.50;99.90
47779;DHT22;33538;48.432;11.350;2024-02-04T13:06:03;7.50;99.90
47779;DHT22;33538;48.432;11.350;2024-02-04T13:08:29;7.50;99.90
47779;DHT22;33538;48.432;11.350;2024-02-04T13:10:57;7.50;99.90
47779;DHT22;33538;48.432;11.350;2024-02-04T13:13:25;7.50;99.90
47779;DHT22;33538;48.432;11.350;2024-02-04T13:15:52;7.50;99.90
47779;DHT22;33538;48.432;11.350;2024-02-04T13:18:19;7.50;99.90
47779;DHT22;33538;48.432;11.350;2024-02-04T13:20:45;7.60;99.90
47779;DHT22;33538;48.432;11.350;2024-02-04T13:23:12;7.60;99.90
47779;DHT22;33538;48.432;11.350;2024-02-04T13:25:39;7.60;99.90
47779;DHT22;33538;48.432;11.350;2024-02-04T13:28:06;7.60;99.90
47779;DHT22;33538;48.432;11.350;2024-02-04T13:30:37;7.50;99.90
47779;DHT22;33538;48.432;11.350;2024-02-04T13:33:04;7.60;99.90
47779;DHT22;33538;48.432;11.350;2024-02-04T13:35:31;7.60;99.90
47779;DHT22;33538;48.432;11.350;2024-02-04T13:37:58;7.60;99.90
47779;DHT22;33538;48.432;11.350;2024-02-04T13:40:25;7.50;99.90
47779;DHT22;33538;48.432;11.350;2024-02-04T13:42:52;7.60;99.90
47779;DHT22;33538;48.432;11.350;2024-02-04T13:45:19;7.60;99.90
47779;DHT22;33538;48.432;11.350;2024-02-04T13:47:47;7.60;99.90
47779;DHT22;33538;48.432;11.350;2024-02-04T13:50:14;7.60;99.90
47779;DHT22;33538;48.432;11.350;2024-02-04T13:52:41;7.60;99.90
47779;DHT22;33538;48.432;11.350;2024-02-04T13:55:08;7.60;99.90
47779;DHT22;33538;48.432;11.350;2024-02-04T13:57:36;7.60;99.90
47779;DHT22;33538;48.432;11.350;2024-02-04T14:00:04;7.60;99.90
47779;DHT22;33538;48.432;11.350;2024-02-04T14:02:32;7.60;99.90
47779;DHT22;33538;48.432;11.350;2024-02-04T14:05:00;7.60;99.90
47779;DHT22;33538;48.432;11.350;2024-02-04T14:07:27;7.60;99.90
47779;DHT22;33538;48.432;11.350;2024-02-04T14:09:55;7.60;99.90
47779;DHT22;33538;48.432;11.350;2024-02-04T14:12:22;7.60;99.90
47779;DHT22;33538;48.432;11.350;2024-02-04T14:14:48;7.60;99.90
47779;DHT22;33538;48.432;11.350;2024-02-04T14:17:15;7.60;99.90
47779;DHT22;33538;48.432;11.350;2024-02-04T14:19:42;7.60;99.90
47779;DHT22;33538;48.432;11.350;2024-02-04T14:22:12;7.60;99.90
47779;DHT22;33538;48.432;11.350;2024-02-04T14:24:38;7.60;99.90
47779;DHT22;33538;48.432;11.350;2024-02-04T14:27:05;7.60;99.90
47779;DHT22;33538;48.432;11.350;2024-02-04T14:29:32;7.60;99.90
47779;DHT22;33538;48.432;11.350;2024-02-04T14:31:59;7.70;99.90
47779;DHT22;33538;48.432;11.350;2024-02-04T14:34:26;7.70;99.90
47779;DHT22;33538;48.432;11.350;2024-02-04T14:36:53;7.60;99.90
47779;DHT22;33538;48.432;11.350;2024-02-04T14:39:21;7.60;99.90
47779;DHT22;33538;48.432;11.350;2024-02-04T14:41:47;7.70;99.90
47779;DHT22;33538;48.432;11.350;2024-02-04T14:44:14;7.70;99.90
47779;DHT22;33538;48.432;11.350;2024-02-04T14:46:42;7.70;99.90
47779;DHT22;33538;48.432;11.350;2024-02-04T14:49:09;7.70;99.90
47779;DHT22;33538;48.432;11.350;2024-02-04T14:51:38;7.70;99.90
47779;DHT22;33538;48.432;11.350;2024-02-04T14:54:05;7.70;99.90
47779;DHT22;33538;48.432;11.350;2024-02-04T14:56:37;7.70;99.90
47779;DHT22;33538;48.432;11.350;2024-02-04T14:59:04;7.70;99.90
47779;DHT22;33538;48.432;11.350;2024-02-04T15:01:34;7.70;99.90
47779;DHT22;33538;48.432;11.350;2024-02-04T15:04:01;7.70;99.90
47779;DHT22;33538;48.432;11.350;2024-02-04T15:06:29;7.70;99.90
47779;DHT22;33538;48.432;11.350;2024-02-04T15:08:56;7.70;99.90
47779;DHT22;33538;48.432;11.350;2024-02-04T15:11:23;7.70;99.90
47779;DHT22;33538;48.432;11.350;2024-02-04T15:13:52;7.70;99.90
47779;DHT22;33538;48.432;11.350;2024-02-04T15:16:19;7.70;99.90
47779;DHT22;33538;48.432;11.350;2024-02-04T15:18:46;7.70;99.90
47779;DHT22;33538;48.432;11.350;2024-02-04T15:21:14;7.70;99.90
47779;DHT22;33538;48.432;11.350;2024-02-04T15:23:41;7.70;99.90
47779;DHT22;33538;48.432;11.350;2024-02-04T15:26:10;7.70;99.90
47779;DHT22;33538;48.432;11.350;2024-02-04T15:28:39;7.70;99.90
47779;DHT22;33538;48.432;11.350;2024-02-04T15:31:08;7.70;99.90
47779;DHT22;33538;48.432;11.350;2024-02-04T15:33:35;7.70;99.90